PWSweather.com
Personal Weather Stations
Station Observations
ANTHEMNP
Anthem, AZ 85086

Anthem, AZ 85086

Lat: 33.876464, Lon: -112.13861199999997

Elevation: 1930

Station Type: AcuRite 1036

Latest ConditionsUpdated 9:20:03 PM MST Thursday, Jul 20, 2017
Currently Today's Max Today's Min Today's Average
Temperature 90.5°F32.5°C 101.1°F38.4°C 80.2°F26.8°C 89.6°F32.0°C
Dew Point 64.3°F17.9°C 67.0°F19.4°C 62.1°F16.7°C 65.2°F18.4°C
Winds 2.3 mph NW3.7 kmh NW 10.4 mph NE16.7 kmh NE - 3.2 mph 5.1 kmh
Wind Gusts 3.5 mph5.6 kmh 12.7 mph20.4 kmh - -
Humidity 42% 61% 32% 46%
Pressure 29.91 in1012.9 mb 30.04 in1017.3 mb 29.86 in1011.2 mb -
Hour Temp Dew Point Humidity Winds Wind Gusts Pressure Precip Precip Rate Daily Precip Total
09:20 PM 90.5°F32.5°C 64.3°F17.9°C 42% 2.3 mph NW3.7 kmh NW 3.5 mph5.6 kmh 29.91 in1012.9 mb - 0.00 in0.0 mm 0.00 in0.0 mm
09:15 PM 90.7°F32.6°C 64.5°F18.1°C 42% 1.2 mph SW1.9 kmh SW 2.3 mph3.7 kmh 29.91 in1012.9 mb - 0.00 in0.0 mm 0.00 in0.0 mm
09:10 PM 90.9°F32.7°C 64.6°F18.1°C 42% 2.3 mph N3.7 kmh N 3.5 mph5.6 kmh 29.91 in1012.9 mb - 0.00 in0.0 mm 0.00 in0.0 mm
09:05 PM 91.1°F32.8°C 64.8°F18.2°C 42% 2.3 mph SSW3.7 kmh SSW 2.3 mph3.7 kmh 29.91 in1012.9 mb - 0.00 in0.0 mm 0.00 in0.0 mm
09:00 PM 91.4°F33.0°C 64.4°F18.0°C 41% 1.2 mph NW1.9 kmh NW 2.3 mph3.7 kmh 29.91 in1012.9 mb - 0.00 in0.0 mm 0.00 in0.0 mm
08:55 PM 91.6°F33.1°C 64.6°F18.1°C 41% 1.2 mph W1.9 kmh W 1.2 mph1.9 kmh 29.91 in1012.9 mb - 0.00 in0.0 mm 0.00 in0.0 mm
08:50 PM 91.6°F33.1°C 64.6°F18.1°C 41% 1.2 mph W1.9 kmh W 2.3 mph3.7 kmh 29.91 in1012.9 mb - 0.00 in0.0 mm 0.00 in0.0 mm
08:45 PM 91.8°F33.2°C 64.7°F18.2°C 41% Calm Calm -- 29.91 in1012.9 mb - 0.00 in0.0 mm 0.00 in0.0 mm
08:40 PM 91.9°F33.3°C 64.8°F18.2°C 41% 1.2 mph N1.9 kmh N 2.3 mph3.7 kmh 29.90 in1012.5 mb - 0.00 in0.0 mm 0.00 in0.0 mm
08:35 PM 91.9°F33.3°C 64.8°F18.2°C 41% 1.2 mph W1.9 kmh W 1.2 mph1.9 kmh 29.90 in1012.5 mb - 0.00 in0.0 mm 0.00 in0.0 mm
08:30 PM 91.9°F33.3°C 64.8°F18.2°C 41% 2.3 mph WNW3.7 kmh WNW 2.3 mph3.7 kmh 29.90 in1012.5 mb - 0.00 in0.0 mm 0.00 in0.0 mm
08:25 PM 92.1°F33.4°C 65.0°F18.3°C 41% 2.3 mph E3.7 kmh E 2.3 mph3.7 kmh 29.90 in1012.5 mb - 0.00 in0.0 mm 0.00 in0.0 mm
08:20 PM 92.1°F33.4°C 65.0°F18.3°C 41% 2.3 mph W3.7 kmh W 2.3 mph3.7 kmh 29.90 in1012.5 mb - 0.00 in0.0 mm 0.00 in0.0 mm
08:15 PM 92.3°F33.5°C 64.5°F18.1°C 40% 2.3 mph WNW3.7 kmh WNW 2.3 mph3.7 kmh 29.89 in1012.2 mb - 0.00 in0.0 mm 0.00 in0.0 mm
08:10 PM 92.5°F33.6°C 64.7°F18.2°C 40% 2.3 mph W3.7 kmh W 2.3 mph3.7 kmh 29.89 in1012.2 mb - 0.00 in0.0 mm 0.00 in0.0 mm
08:05 PM 92.7°F33.7°C 64.8°F18.2°C 40% 2.3 mph W3.7 kmh W 2.3 mph3.7 kmh 29.89 in1012.2 mb - 0.00 in0.0 mm 0.00 in0.0 mm
08:00 PM 92.7°F33.7°C 64.1°F17.8°C 39% 3.5 mph W5.6 kmh W 3.5 mph5.6 kmh 29.89 in1012.2 mb - 0.00 in0.0 mm 0.00 in0.0 mm
07:55 PM 93.0°F33.9°C 64.4°F18.0°C 39% 2.3 mph WSW3.7 kmh WSW 3.5 mph5.6 kmh 29.89 in1012.2 mb - 0.00 in0.0 mm 0.00 in0.0 mm
07:50 PM 93.2°F34.0°C 64.5°F18.1°C 39% 3.5 mph WSW5.6 kmh WSW 4.6 mph7.4 kmh 29.89 in1012.2 mb - 0.00 in0.0 mm 0.00 in0.0 mm
07:45 PM 93.6°F34.2°C 64.9°F18.3°C 39% 3.5 mph WSW5.6 kmh WSW 3.5 mph5.6 kmh 29.89 in1012.2 mb - 0.00 in0.0 mm 0.00 in0.0 mm
07:40 PM 94.1°F34.5°C 64.6°F18.1°C 38% 3.5 mph WSW5.6 kmh WSW 3.5 mph5.6 kmh 29.88 in1011.9 mb - 0.00 in0.0 mm 0.00 in0.0 mm
07:35 PM 94.1°F34.5°C 64.6°F18.1°C 38% 2.3 mph WSW3.7 kmh WSW 4.6 mph7.4 kmh 29.88 in1011.9 mb - 0.00 in0.0 mm 0.00 in0.0 mm
07:30 PM 94.1°F34.5°C 64.6°F18.1°C 38% 3.5 mph W5.6 kmh W 3.5 mph5.6 kmh 29.88 in1011.9 mb - 0.00 in0.0 mm 0.00 in0.0 mm
07:25 PM 94.3°F34.6°C 64.8°F18.2°C 38% 3.5 mph W5.6 kmh W 3.5 mph5.6 kmh 29.88 in1011.9 mb - 0.00 in0.0 mm 0.00 in0.0 mm
07:20 PM 94.3°F34.6°C 64.8°F18.2°C 38% 3.5 mph WNW5.6 kmh WNW 4.6 mph7.4 kmh 29.88 in1011.9 mb - 0.00 in0.0 mm 0.00 in0.0 mm
07:15 PM 94.5°F34.7°C 64.2°F17.9°C 37% 3.5 mph WNW5.6 kmh WNW 4.6 mph7.4 kmh 29.88 in1011.9 mb - 0.00 in0.0 mm 0.00 in0.0 mm
07:10 PM 94.5°F34.7°C 64.2°F17.9°C 37% 2.3 mph W3.7 kmh W 3.5 mph5.6 kmh 29.88 in1011.9 mb - 0.00 in0.0 mm 0.00 in0.0 mm
07:05 PM 94.5°F34.7°C 64.2°F17.9°C 37% 3.5 mph W5.6 kmh W 3.5 mph5.6 kmh 29.87 in1011.5 mb - 0.00 in0.0 mm 0.00 in0.0 mm
07:00 PM 94.5°F34.7°C 64.2°F17.9°C 37% 3.5 mph W5.6 kmh W 3.5 mph5.6 kmh 29.87 in1011.5 mb - 0.00 in0.0 mm 0.00 in0.0 mm
06:55 PM 94.5°F34.7°C 64.2°F17.9°C 37% 2.3 mph W3.7 kmh W 2.3 mph3.7 kmh 29.87 in1011.5 mb - 0.00 in0.0 mm 0.00 in0.0 mm
06:50 PM 94.5°F34.7°C 64.2°F17.9°C 37% 3.5 mph SW5.6 kmh SW 2.3 mph3.7 kmh 29.88 in1011.9 mb - 0.00 in0.0 mm 0.00 in0.0 mm
06:45 PM 94.9°F34.9°C 63.7°F17.6°C 36% 3.5 mph WNW5.6 kmh WNW 4.6 mph7.4 kmh 29.88 in1011.9 mb - 0.00 in0.0 mm 0.00 in0.0 mm
06:40 PM 95.9°F35.5°C 63.8°F17.7°C 35% 4.6 mph W7.4 kmh W 5.8 mph9.3 kmh 29.87 in1011.5 mb - 0.00 in0.0 mm 0.00 in0.0 mm
06:35 PM 96.4°F35.8°C 62.6°F17.0°C 33% 1.2 mph WSW1.9 kmh WSW 4.6 mph7.4 kmh 29.87 in1011.5 mb - 0.00 in0.0 mm 0.00 in0.0 mm
06:30 PM 96.6°F35.9°C 62.8°F17.1°C 33% 2.3 mph WNW3.7 kmh WNW 2.3 mph3.7 kmh 29.87 in1011.5 mb - 0.00 in0.0 mm 0.00 in0.0 mm
06:25 PM 96.8°F36.0°C 63.0°F17.2°C 33% 3.5 mph NE5.6 kmh NE 3.5 mph5.6 kmh 29.87 in1011.5 mb - 0.00 in0.0 mm 0.00 in0.0 mm
06:20 PM 96.8°F36.0°C 62.1°F16.7°C 32% 3.5 mph NNE5.6 kmh NNE 4.6 mph7.4 kmh 29.87 in1011.5 mb - 0.00 in0.0 mm 0.00 in0.0 mm
06:15 PM 97.0°F36.1°C 62.3°F16.8°C 32% 3.5 mph N5.6 kmh N 2.3 mph3.7 kmh 29.86 in1011.2 mb - 0.00 in0.0 mm 0.00 in0.0 mm
06:10 PM 97.0°F36.1°C 62.3°F16.8°C 32% 2.3 mph NNW3.7 kmh NNW 2.3 mph3.7 kmh 29.86 in1011.2 mb - 0.00 in0.0 mm 0.00 in0.0 mm
06:05 PM 97.0°F36.1°C 62.3°F16.8°C 32% 3.5 mph NE5.6 kmh NE 3.5 mph5.6 kmh 29.86 in1011.2 mb - 0.00 in0.0 mm 0.00 in0.0 mm
06:00 PM 97.2°F36.2°C 62.4°F16.9°C 32% 3.5 mph NE5.6 kmh NE 2.3 mph3.7 kmh 29.86 in1011.2 mb - 0.00 in0.0 mm 0.00 in0.0 mm
05:55 PM 97.3°F36.3°C 62.5°F16.9°C 32% 4.6 mph NE7.4 kmh NE 5.8 mph9.3 kmh 29.86 in1011.2 mb - 0.00 in0.0 mm 0.00 in0.0 mm
05:50 PM 97.3°F36.3°C 62.5°F16.9°C 32% 1.2 mph SSW1.9 kmh SSW 3.5 mph5.6 kmh 29.86 in1011.2 mb - 0.00 in0.0 mm 0.00 in0.0 mm
05:45 PM 97.9°F36.6°C 63.0°F17.2°C 32% 4.6 mph NNE7.4 kmh NNE 4.6 mph7.4 kmh 29.86 in1011.2 mb - 0.00 in0.0 mm 0.00 in0.0 mm
05:40 PM 98.1°F36.7°C 63.2°F17.3°C 32% 5.8 mph N9.3 kmh N 6.9 mph11.1 kmh 29.86 in1011.2 mb - 0.00 in0.0 mm 0.00 in0.0 mm
05:35 PM 98.1°F36.7°C 63.2°F17.3°C 32% 2.3 mph NE3.7 kmh NE 2.3 mph3.7 kmh 29.86 in1011.2 mb - 0.00 in0.0 mm 0.00 in0.0 mm
05:30 PM 98.1°F36.7°C 63.2°F17.3°C 32% 5.8 mph N9.3 kmh N 5.8 mph9.3 kmh 29.86 in1011.2 mb - 0.00 in0.0 mm 0.00 in0.0 mm
05:25 PM 98.1°F36.7°C 63.2°F17.3°C 32% 5.8 mph N9.3 kmh N 5.8 mph9.3 kmh 29.86 in1011.2 mb - 0.00 in0.0 mm 0.00 in0.0 mm
05:20 PM 98.1°F36.7°C 63.2°F17.3°C 32% 6.9 mph NNW11.1 kmh NNW 6.9 mph11.1 kmh 29.86 in1011.2 mb - 0.00 in0.0 mm 0.00 in0.0 mm
05:15 PM 98.6°F37.0°C 63.6°F17.6°C 32% 6.9 mph N11.1 kmh N 12.7 mph20.4 kmh 29.86 in1011.2 mb - 0.00 in0.0 mm 0.00 in0.0 mm
05:10 PM 98.6°F37.0°C 63.6°F17.6°C 32% 5.8 mph N9.3 kmh N 6.9 mph11.1 kmh 29.86 in1011.2 mb - 0.00 in0.0 mm 0.00 in0.0 mm
05:05 PM 98.8°F37.1°C 63.8°F17.7°C 32% 4.6 mph WNW7.4 kmh WNW 4.6 mph7.4 kmh 29.86 in1011.2 mb - 0.00 in0.0 mm 0.00 in0.0 mm
05:00 PM 98.8°F37.1°C 63.8°F17.7°C 32% 8.1 mph NNW13.0 kmh NNW 12.7 mph20.4 kmh 29.86 in1011.2 mb - 0.00 in0.0 mm 0.00 in0.0 mm
04:55 PM 98.6°F37.0°C 64.5°F18.1°C 33% 5.8 mph N9.3 kmh N 6.9 mph11.1 kmh 29.87 in1011.5 mb - 0.00 in0.0 mm 0.00 in0.0 mm
04:50 PM 98.2°F36.8°C 64.2°F17.9°C 33% 4.6 mph NNW7.4 kmh NNW 6.9 mph11.1 kmh 29.87 in1011.5 mb - 0.00 in0.0 mm 0.00 in0.0 mm
04:45 PM 98.6°F37.0°C 64.5°F18.1°C 33% 5.8 mph ENE9.3 kmh ENE 8.1 mph13.0 kmh 29.87 in1011.5 mb - 0.00 in0.0 mm 0.00 in0.0 mm
04:40 PM 98.3°F36.8°C 64.3°F17.9°C 33% 4.6 mph N7.4 kmh N 5.8 mph9.3 kmh 29.87 in1011.5 mb - 0.00 in0.0 mm 0.00 in0.0 mm
04:35 PM 98.4°F36.9°C 64.3°F17.9°C 33% 6.9 mph NNE11.1 kmh NNE 8.1 mph13.0 kmh 29.87 in1011.5 mb - 0.00 in0.0 mm 0.00 in0.0 mm
04:30 PM 98.0°F36.7°C 64.0°F17.8°C 33% 6.9 mph NNE11.1 kmh NNE 8.1 mph13.0 kmh 29.88 in1011.9 mb - 0.00 in0.0 mm 0.00 in0.0 mm
04:25 PM 98.1°F36.7°C 64.1°F17.8°C 33% 5.8 mph NNE9.3 kmh NNE 9.2 mph14.8 kmh 29.88 in1011.9 mb - 0.00 in0.0 mm 0.00 in0.0 mm
04:20 PM 98.1°F36.7°C 64.1°F17.8°C 33% 8.1 mph N13.0 kmh N 12.7 mph20.4 kmh 29.88 in1011.9 mb - 0.00 in0.0 mm 0.00 in0.0 mm
04:15 PM 98.3°F36.8°C 64.3°F17.9°C 33% 6.9 mph NNW11.1 kmh NNW 11.5 mph18.5 kmh 29.88 in1011.9 mb - 0.00 in0.0 mm 0.00 in0.0 mm
04:10 PM 98.1°F36.7°C 64.9°F18.3°C 34% 6.9 mph NE11.1 kmh NE 9.2 mph14.8 kmh 29.88 in1011.9 mb - 0.00 in0.0 mm 0.00 in0.0 mm
04:05 PM 99.1°F37.3°C 65.0°F18.3°C 33% 10.4 mph NE16.7 kmh NE 10.4 mph16.7 kmh 29.88 in1011.9 mb - 0.00 in0.0 mm 0.00 in0.0 mm
04:00 PM 99.2°F37.3°C 65.0°F18.3°C 33% 8.1 mph NNE13.0 kmh NNE 8.1 mph13.0 kmh 29.88 in1011.9 mb - 0.00 in0.0 mm 0.00 in0.0 mm
03:55 PM 98.4°F36.9°C 65.2°F18.4°C 34% 3.5 mph NE5.6 kmh NE 5.8 mph9.3 kmh 29.88 in1011.9 mb - 0.00 in0.0 mm 0.00 in0.0 mm
03:50 PM 98.6°F37.0°C 64.5°F18.1°C 33% 8.1 mph NNE13.0 kmh NNE 6.9 mph11.1 kmh 29.89 in1012.2 mb - 0.00 in0.0 mm 0.00 in0.0 mm
03:45 PM 99.4°F37.4°C 65.2°F18.4°C 33% 5.8 mph N9.3 kmh N 5.8 mph9.3 kmh 29.89 in1012.2 mb - 0.00 in0.0 mm 0.00 in0.0 mm
03:40 PM 100.3°F37.9°C 66.0°F18.9°C 33% 4.6 mph NNE7.4 kmh NNE 6.9 mph11.1 kmh 29.89 in1012.2 mb - 0.00 in0.0 mm 0.00 in0.0 mm
03:35 PM 101.1°F38.4°C 66.7°F19.3°C 33% 6.9 mph NNE11.1 kmh NNE 6.9 mph11.1 kmh 29.89 in1012.2 mb - 0.00 in0.0 mm 0.00 in0.0 mm
03:30 PM 101.1°F38.4°C 66.7°F19.3°C 33% 6.9 mph NNE11.1 kmh NNE 6.9 mph11.1 kmh 29.90 in1012.5 mb - 0.00 in0.0 mm 0.00 in0.0 mm
03:25 PM 100.1°F37.8°C 66.7°F19.3°C 34% 3.5 mph WNW5.6 kmh WNW 4.6 mph7.4 kmh 29.90 in1012.5 mb - 0.00 in0.0 mm 0.00 in0.0 mm
03:20 PM 99.9°F37.7°C 66.6°F19.2°C 34% 4.6 mph WSW7.4 kmh WSW 4.6 mph7.4 kmh 29.90 in1012.5 mb - 0.00 in0.0 mm 0.00 in0.0 mm
03:15 PM 99.6°F37.6°C 66.2°F19.0°C 34% 3.5 mph W5.6 kmh W 4.6 mph7.4 kmh 29.90 in1012.5 mb - 0.00 in0.0 mm 0.00 in0.0 mm
03:10 PM 100.9°F38.3°C 66.5°F19.2°C 33% 4.6 mph W7.4 kmh W 6.9 mph11.1 kmh 29.90 in1012.5 mb - 0.00 in0.0 mm 0.00 in0.0 mm
03:05 PM 100.9°F38.3°C 66.5°F19.2°C 33% 3.5 mph W5.6 kmh W 6.9 mph11.1 kmh 29.92 in1013.2 mb - 0.00 in0.0 mm 0.00 in0.0 mm
03:00 PM 99.4°F37.4°C 65.2°F18.4°C 33% 2.3 mph W3.7 kmh W 5.8 mph9.3 kmh 29.92 in1013.2 mb - 0.00 in0.0 mm 0.00 in0.0 mm
02:55 PM 98.9°F37.2°C 65.7°F18.7°C 34% 4.6 mph WNW7.4 kmh WNW 5.8 mph9.3 kmh 29.92 in1013.2 mb - 0.00 in0.0 mm 0.00 in0.0 mm
02:50 PM 98.7°F37.1°C 65.4°F18.6°C 34% 4.6 mph SW7.4 kmh SW 5.8 mph9.3 kmh 29.92 in1013.2 mb - 0.00 in0.0 mm 0.00 in0.0 mm
02:45 PM 99.5°F37.5°C 66.2°F19.0°C 34% 3.5 mph WSW5.6 kmh WSW 4.6 mph7.4 kmh 29.92 in1013.2 mb - 0.00 in0.0 mm 0.00 in0.0 mm
02:40 PM 98.5°F36.9°C 66.1°F18.9°C 35% 5.8 mph W9.3 kmh W 8.1 mph13.0 kmh 29.93 in1013.5 mb - 0.00 in0.0 mm 0.00 in0.0 mm
02:35 PM 98.9°F37.2°C 65.6°F18.7°C 34% 4.6 mph WSW7.4 kmh WSW 5.8 mph9.3 kmh 29.93 in1013.5 mb - 0.00 in0.0 mm 0.00 in0.0 mm
02:30 PM 99.2°F37.3°C 65.9°F18.8°C 34% 3.5 mph E5.6 kmh E 4.6 mph7.4 kmh 29.93 in1013.5 mb - 0.00 in0.0 mm 0.00 in0.0 mm
02:25 PM 98.9°F37.2°C 66.5°F19.2°C 35% 5.8 mph WNW9.3 kmh WNW 5.8 mph9.3 kmh 29.93 in1013.5 mb - 0.00 in0.0 mm 0.00 in0.0 mm
02:20 PM 99.7°F37.6°C 65.5°F18.6°C 33% 3.5 mph NW5.6 kmh NW 3.5 mph5.6 kmh 29.93 in1013.5 mb - 0.00 in0.0 mm 0.00 in0.0 mm
02:15 PM 98.6°F37.0°C 65.4°F18.6°C 34% 3.5 mph S5.6 kmh S 4.6 mph7.4 kmh 29.94 in1013.9 mb - 0.00 in0.0 mm 0.00 in0.0 mm
02:10 PM 98.7°F37.1°C 65.5°F18.6°C 34% 3.5 mph W5.6 kmh W 4.6 mph7.4 kmh 29.94 in1013.9 mb - 0.00 in0.0 mm 0.00 in0.0 mm
02:05 PM 98.2°F36.8°C 65.0°F18.3°C 34% 4.6 mph W7.4 kmh W 5.8 mph9.3 kmh 29.95 in1014.2 mb - 0.00 in0.0 mm 0.00 in0.0 mm
02:00 PM 98.5°F36.9°C 65.3°F18.5°C 34% 3.5 mph SW5.6 kmh SW 5.8 mph9.3 kmh 29.95 in1014.2 mb - 0.00 in0.0 mm 0.00 in0.0 mm
01:55 PM 97.9°F36.6°C 65.6°F18.7°C 35% 4.6 mph S7.4 kmh S 5.8 mph9.3 kmh 29.95 in1014.2 mb - 0.00 in0.0 mm 0.00 in0.0 mm
01:50 PM 97.7°F36.5°C 64.6°F18.1°C 34% 3.5 mph WSW5.6 kmh WSW 3.5 mph5.6 kmh 29.95 in1014.2 mb - 0.00 in0.0 mm 0.00 in0.0 mm
01:45 PM 97.6°F36.4°C 65.4°F18.6°C 35% 3.5 mph NNE5.6 kmh NNE 4.6 mph7.4 kmh 29.95 in1014.2 mb - 0.00 in0.0 mm 0.00 in0.0 mm
01:40 PM 97.0°F36.1°C 64.8°F18.2°C 35% 4.6 mph W7.4 kmh W 5.8 mph9.3 kmh 29.96 in1014.6 mb - 0.00 in0.0 mm 0.00 in0.0 mm
01:35 PM 98.8°F37.1°C 65.6°F18.7°C 34% 4.6 mph W7.4 kmh W 6.9 mph11.1 kmh 29.96 in1014.6 mb - 0.00 in0.0 mm 0.00 in0.0 mm
01:30 PM 96.9°F36.1°C 64.7°F18.2°C 35% 3.5 mph WNW5.6 kmh WNW 6.9 mph11.1 kmh 29.96 in1014.6 mb - 0.00 in0.0 mm 0.00 in0.0 mm
01:25 PM 96.7°F35.9°C 66.2°F19.0°C 37% 4.6 mph W7.4 kmh W 4.6 mph7.4 kmh 29.96 in1014.6 mb - 0.00 in0.0 mm 0.00 in0.0 mm
01:20 PM 96.0°F35.6°C 64.7°F18.2°C 36% 3.5 mph W5.6 kmh W 5.8 mph9.3 kmh 29.96 in1014.6 mb - 0.00 in0.0 mm 0.00 in0.0 mm
01:15 PM 97.0°F36.1°C 65.6°F18.7°C 36% 4.6 mph W7.4 kmh W 5.8 mph9.3 kmh 29.97 in1014.9 mb - 0.00 in0.0 mm 0.00 in0.0 mm
01:10 PM 95.7°F35.4°C 65.2°F18.4°C 37% 3.5 mph WSW5.6 kmh WSW 4.6 mph7.4 kmh 29.97 in1014.9 mb - 0.00 in0.0 mm 0.00 in0.0 mm
01:05 PM 95.2°F35.1°C 64.8°F18.2°C 37% 2.3 mph NNW3.7 kmh NNW 4.6 mph7.4 kmh 29.98 in1015.2 mb - 0.00 in0.0 mm 0.00 in0.0 mm
01:00 PM 95.9°F35.5°C 65.5°F18.6°C 37% 4.6 mph S7.4 kmh S 6.9 mph11.1 kmh 29.98 in1015.2 mb - 0.00 in0.0 mm 0.00 in0.0 mm
12:55 PM 95.8°F35.4°C 65.3°F18.5°C 37% 3.5 mph W5.6 kmh W 5.8 mph9.3 kmh 29.98 in1015.2 mb - 0.00 in0.0 mm 0.00 in0.0 mm
12:50 PM 95.1°F35.1°C 65.5°F18.6°C 38% 2.3 mph WSW3.7 kmh WSW 3.5 mph5.6 kmh 29.98 in1015.2 mb - 0.00 in0.0 mm 0.00 in0.0 mm
12:45 PM 95.6°F35.3°C 65.9°F18.8°C 38% 3.5 mph S5.6 kmh S 6.9 mph11.1 kmh 29.98 in1015.2 mb - 0.00 in0.0 mm 0.00 in0.0 mm
12:40 PM 95.5°F35.3°C 65.9°F18.8°C 38% 3.5 mph NW5.6 kmh NW 3.5 mph5.6 kmh 29.99 in1015.6 mb - 0.00 in0.0 mm 0.00 in0.0 mm
12:35 PM 94.5°F34.7°C 65.7°F18.7°C 39% 4.6 mph S7.4 kmh S 5.8 mph9.3 kmh 29.99 in1015.6 mb - 0.00 in0.0 mm 0.00 in0.0 mm
12:30 PM 92.6°F33.7°C 65.5°F18.6°C 41% 1.2 mph WSW1.9 kmh WSW 5.8 mph9.3 kmh 30.00 in1015.9 mb - 0.00 in0.0 mm 0.00 in0.0 mm
12:25 PM 92.1°F33.4°C 65.0°F18.3°C 41% 3.5 mph SW5.6 kmh SW 3.5 mph5.6 kmh 30.00 in1015.9 mb - 0.00 in0.0 mm 0.00 in0.0 mm
12:20 PM 93.4°F34.1°C 65.5°F18.6°C 40% 2.3 mph S3.7 kmh S 4.6 mph7.4 kmh 30.00 in1015.9 mb - 0.00 in0.0 mm 0.00 in0.0 mm
12:15 PM 93.4°F34.1°C 65.5°F18.6°C 40% 2.3 mph W3.7 kmh W 2.3 mph3.7 kmh 30.00 in1015.9 mb - 0.00 in0.0 mm 0.00 in0.0 mm
12:10 PM 92.8°F33.8°C 65.6°F18.7°C 41% 3.5 mph SW5.6 kmh SW 6.9 mph11.1 kmh 30.00 in1015.9 mb - 0.00 in0.0 mm 0.00 in0.0 mm
12:05 PM 91.7°F33.2°C 65.4°F18.6°C 42% 2.3 mph W3.7 kmh W 5.8 mph9.3 kmh 30.01 in1016.3 mb - 0.00 in0.0 mm 0.00 in0.0 mm
12:00 PM 92.3°F33.5°C 65.2°F18.4°C 41% 3.5 mph N5.6 kmh N 3.5 mph5.6 kmh 30.01 in1016.3 mb - 0.00 in0.0 mm 0.00 in0.0 mm
11:55 AM 92.3°F33.5°C 65.2°F18.4°C 41% 4.6 mph SSW7.4 kmh SSW 6.9 mph11.1 kmh 30.02 in1016.6 mb - 0.00 in0.0 mm 0.00 in0.0 mm
11:50 AM 92.4°F33.6°C 66.0°F18.9°C 42% 2.3 mph W3.7 kmh W 2.3 mph3.7 kmh 30.02 in1016.6 mb - 0.00 in0.0 mm 0.00 in0.0 mm
11:45 AM 91.9°F33.3°C 65.5°F18.6°C 42% 1.2 mph W1.9 kmh W 2.3 mph3.7 kmh 30.02 in1016.6 mb - 0.00 in0.0 mm 0.00 in0.0 mm
11:40 AM 91.4°F33.0°C 65.1°F18.4°C 42% 2.3 mph SE3.7 kmh SE 3.5 mph5.6 kmh 30.02 in1016.6 mb - 0.00 in0.0 mm 0.00 in0.0 mm
11:35 AM 91.2°F32.9°C 65.6°F18.7°C 43% 3.5 mph S5.6 kmh S 3.5 mph5.6 kmh 30.02 in1016.6 mb - 0.00 in0.0 mm 0.00 in0.0 mm
11:30 AM 91.4°F33.0°C 66.4°F19.1°C 44% 4.6 mph SSW7.4 kmh SSW 5.8 mph9.3 kmh 30.02 in1016.6 mb - 0.00 in0.0 mm 0.00 in0.0 mm
11:25 AM 90.5°F32.5°C 65.6°F18.7°C 44% 3.5 mph S5.6 kmh S 5.8 mph9.3 kmh 30.02 in1016.6 mb - 0.00 in0.0 mm 0.00 in0.0 mm
11:20 AM 90.9°F32.7°C 66.0°F18.9°C 44% 2.3 mph SSE3.7 kmh SSE 4.6 mph7.4 kmh 30.02 in1016.6 mb - 0.00 in0.0 mm 0.00 in0.0 mm
11:15 AM 90.0°F32.2°C 65.8°F18.8°C 45% 3.5 mph S5.6 kmh S 5.8 mph9.3 kmh 30.03 in1016.9 mb - 0.00 in0.0 mm 0.00 in0.0 mm
11:10 AM 90.1°F32.3°C 65.9°F18.8°C 45% 2.3 mph SSE3.7 kmh SSE 4.6 mph7.4 kmh 30.03 in1016.9 mb - 0.00 in0.0 mm 0.00 in0.0 mm
11:05 AM 89.8°F32.1°C 66.2°F19.0°C 46% 3.5 mph S5.6 kmh S 4.6 mph7.4 kmh 30.04 in1017.3 mb - 0.00 in0.0 mm 0.00 in0.0 mm
11:00 AM 89.2°F31.8°C 65.7°F18.7°C 46% 3.5 mph SSW5.6 kmh SSW 3.5 mph5.6 kmh 30.04 in1017.3 mb - 0.00 in0.0 mm 0.00 in0.0 mm
10:55 AM 89.5°F31.9°C 66.0°F18.9°C 46% 3.5 mph SW5.6 kmh SW 4.6 mph7.4 kmh 30.04 in1017.3 mb - 0.00 in0.0 mm 0.00 in0.0 mm
10:50 AM 89.8°F32.1°C 65.6°F18.7°C 45% Calm Calm 2.3 mph3.7 kmh 30.04 in1017.3 mb - 0.00 in0.0 mm 0.00 in0.0 mm
10:45 AM 89.4°F31.9°C 65.3°F18.5°C 45% 2.3 mph SSE3.7 kmh SSE 3.5 mph5.6 kmh 30.04 in1017.3 mb - 0.00 in0.0 mm 0.00 in0.0 mm
10:40 AM 88.6°F31.4°C 64.5°F18.1°C 45% 1.2 mph SE1.9 kmh SE 2.3 mph3.7 kmh 30.04 in1017.3 mb - 0.00 in0.0 mm 0.00 in0.0 mm
10:35 AM 88.8°F31.6°C 64.7°F18.2°C 45% 2.3 mph S3.7 kmh S 3.5 mph5.6 kmh 30.04 in1017.3 mb - 0.00 in0.0 mm 0.00 in0.0 mm
10:30 AM 88.1°F31.2°C 65.3°F18.5°C 47% 1.2 mph SSW1.9 kmh SSW 2.3 mph3.7 kmh 30.04 in1017.3 mb - 0.00 in0.0 mm 0.00 in0.0 mm
10:25 AM 87.9°F31.1°C 64.5°F18.1°C 46% 1.2 mph S1.9 kmh S -- 30.04 in1017.3 mb - 0.00 in0.0 mm 0.00 in0.0 mm
10:20 AM 87.3°F30.7°C 65.2°F18.4°C 48% 3.5 mph S5.6 kmh S 4.6 mph7.4 kmh 30.04 in1017.3 mb - 0.00 in0.0 mm 0.00 in0.0 mm
10:15 AM 87.2°F30.7°C 65.1°F18.4°C 48% 2.3 mph S3.7 kmh S 2.3 mph3.7 kmh 30.04 in1017.3 mb - 0.00 in0.0 mm 0.00 in0.0 mm
10:10 AM 87.2°F30.7°C 65.1°F18.4°C 48% 2.3 mph S3.7 kmh S 2.3 mph3.7 kmh 30.04 in1017.3 mb - 0.00 in0.0 mm 0.00 in0.0 mm
10:05 AM 86.9°F30.5°C 64.8°F18.2°C 48% 3.5 mph SE5.6 kmh SE 4.6 mph7.4 kmh 30.04 in1017.3 mb - 0.00 in0.0 mm 0.00 in0.0 mm
10:00 AM 86.9°F30.5°C 64.8°F18.2°C 48% 2.3 mph S3.7 kmh S 3.5 mph5.6 kmh 30.04 in1017.3 mb - 0.00 in0.0 mm 0.00 in0.0 mm
09:55 AM 86.8°F30.4°C 64.2°F17.9°C 47% 3.5 mph SE5.6 kmh SE 5.8 mph9.3 kmh 30.04 in1017.3 mb - 0.00 in0.0 mm 0.00 in0.0 mm
09:50 AM 87.1°F30.6°C 64.4°F18.0°C 47% 2.3 mph SSW3.7 kmh SSW 3.5 mph5.6 kmh 30.04 in1017.3 mb - 0.00 in0.0 mm 0.00 in0.0 mm
09:45 AM 87.3°F30.7°C 64.6°F18.1°C 47% 2.3 mph S3.7 kmh S 2.3 mph3.7 kmh 30.04 in1017.3 mb - 0.00 in0.0 mm 0.00 in0.0 mm
09:40 AM 87.1°F30.6°C 64.4°F18.0°C 47% 2.3 mph SSW3.7 kmh SSW 2.3 mph3.7 kmh 30.04 in1017.3 mb - 0.00 in0.0 mm 0.00 in0.0 mm
09:35 AM 87.0°F30.6°C 64.3°F17.9°C 47% 2.3 mph SE3.7 kmh SE 2.3 mph3.7 kmh 30.04 in1017.3 mb - 0.00 in0.0 mm 0.00 in0.0 mm
09:30 AM 86.9°F30.5°C 64.2°F17.9°C 47% 3.5 mph S5.6 kmh S 3.5 mph5.6 kmh 30.04 in1017.3 mb - 0.00 in0.0 mm 0.00 in0.0 mm
09:25 AM 87.0°F30.6°C 64.4°F18.0°C 47% 2.3 mph SSW3.7 kmh SSW 2.3 mph3.7 kmh 30.04 in1017.3 mb - 0.00 in0.0 mm 0.00 in0.0 mm
09:20 AM 86.9°F30.5°C 64.2°F17.9°C 47% 2.3 mph SE3.7 kmh SE 2.3 mph3.7 kmh 30.04 in1017.3 mb - 0.00 in0.0 mm 0.00 in0.0 mm
09:15 AM 86.7°F30.4°C 64.7°F18.2°C 48% 2.3 mph S3.7 kmh S 2.3 mph3.7 kmh 30.04 in1017.3 mb - 0.00 in0.0 mm 0.00 in0.0 mm
09:10 AM 87.1°F30.6°C 65.0°F18.3°C 48% 2.3 mph SSW3.7 kmh SSW 3.5 mph5.6 kmh 30.04 in1017.3 mb - 0.00 in0.0 mm 0.00 in0.0 mm
09:05 AM 86.8°F30.4°C 64.7°F18.2°C 48% 2.3 mph S3.7 kmh S 2.3 mph3.7 kmh 30.03 in1016.9 mb - 0.00 in0.0 mm 0.00 in0.0 mm
09:00 AM 86.7°F30.4°C 64.7°F18.2°C 48% 3.5 mph S5.6 kmh S 4.6 mph7.4 kmh 30.03 in1016.9 mb - 0.00 in0.0 mm 0.00 in0.0 mm
08:55 AM 86.9°F30.5°C 64.8°F18.2°C 48% 3.5 mph S5.6 kmh S 4.6 mph7.4 kmh 30.04 in1017.3 mb - 0.00 in0.0 mm 0.00 in0.0 mm
08:50 AM 87.1°F30.6°C 65.0°F18.3°C 48% 3.5 mph SE5.6 kmh SE 5.8 mph9.3 kmh 30.04 in1017.3 mb - 0.00 in0.0 mm 0.00 in0.0 mm
08:45 AM 87.1°F30.6°C 64.4°F18.0°C 47% 2.3 mph S3.7 kmh S 3.5 mph5.6 kmh 30.04 in1017.3 mb - 0.00 in0.0 mm 0.00 in0.0 mm
08:40 AM 87.3°F30.7°C 64.6°F18.1°C 47% 2.3 mph S3.7 kmh S 2.3 mph3.7 kmh 30.03 in1016.9 mb - 0.00 in0.0 mm 0.00 in0.0 mm
08:35 AM 87.4°F30.8°C 64.7°F18.2°C 47% 1.2 mph SSE1.9 kmh SSE 2.3 mph3.7 kmh 30.03 in1016.9 mb - 0.00 in0.0 mm 0.00 in0.0 mm
08:30 AM 87.0°F30.6°C 64.3°F17.9°C 47% 3.5 mph SSE5.6 kmh SSE 3.5 mph5.6 kmh 30.04 in1017.3 mb - 0.00 in0.0 mm 0.00 in0.0 mm
08:25 AM 86.8°F30.4°C 64.8°F18.2°C 48% Calm Calm -- 30.04 in1017.3 mb - 0.00 in0.0 mm 0.00 in0.0 mm
08:20 AM 87.0°F30.6°C 65.0°F18.3°C 48% 3.5 mph SE5.6 kmh SE 3.5 mph5.6 kmh 30.04 in1017.3 mb - 0.00 in0.0 mm 0.00 in0.0 mm
08:15 AM 87.4°F30.8°C 65.3°F18.5°C 48% 4.6 mph SE7.4 kmh SE 4.6 mph7.4 kmh 30.03 in1016.9 mb - 0.00 in0.0 mm 0.00 in0.0 mm
08:10 AM 87.3°F30.7°C 65.8°F18.8°C 49% 3.5 mph SSE5.6 kmh SSE 3.5 mph5.6 kmh 30.03 in1016.9 mb - 0.00 in0.0 mm 0.00 in0.0 mm
08:05 AM 87.3°F30.7°C 65.8°F18.8°C 49% 2.3 mph SE3.7 kmh SE 4.6 mph7.4 kmh 30.03 in1016.9 mb - 0.00 in0.0 mm 0.00 in0.0 mm
08:00 AM 86.9°F30.5°C 66.6°F19.2°C 51% 3.5 mph S5.6 kmh S 4.6 mph7.4 kmh 30.03 in1016.9 mb - 0.00 in0.0 mm 0.00 in0.0 mm
07:55 AM 86.5°F30.3°C 66.8°F19.3°C 52% 2.3 mph S3.7 kmh S 2.3 mph3.7 kmh 30.03 in1016.9 mb - 0.00 in0.0 mm 0.00 in0.0 mm
07:50 AM 86.5°F30.3°C 66.2°F19.0°C 51% 3.5 mph SSE5.6 kmh SSE 4.6 mph7.4 kmh 30.03 in1016.9 mb - 0.00 in0.0 mm 0.00 in0.0 mm
07:45 AM 86.5°F30.3°C 66.2°F19.0°C 51% 4.6 mph S7.4 kmh S 5.8 mph9.3 kmh 30.03 in1016.9 mb - 0.00 in0.0 mm 0.00 in0.0 mm
07:40 AM 86.6°F30.3°C 66.3°F19.1°C 51% Calm Calm -- 30.03 in1016.9 mb - 0.00 in0.0 mm 0.00 in0.0 mm
07:35 AM 85.8°F29.9°C 66.7°F19.3°C 53% Calm Calm -- 30.03 in1016.9 mb - 0.00 in0.0 mm 0.00 in0.0 mm
07:30 AM 86.9°F30.5°C 66.6°F19.2°C 51% Calm Calm -- 30.02 in1016.6 mb - 0.00 in0.0 mm 0.00 in0.0 mm
07:25 AM 86.7°F30.4°C 67.0°F19.4°C 52% Calm Calm -- 30.02 in1016.6 mb - 0.00 in0.0 mm 0.00 in0.0 mm
07:20 AM 84.9°F29.4°C 66.4°F19.1°C 54% 2.3 mph NW3.7 kmh NW 1.2 mph1.9 kmh 30.02 in1016.6 mb - 0.00 in0.0 mm 0.00 in0.0 mm
07:15 AM 84.7°F29.3°C 66.7°F19.3°C 55% 2.3 mph NNE3.7 kmh NNE 1.2 mph1.9 kmh 30.02 in1016.6 mb - 0.00 in0.0 mm 0.00 in0.0 mm
07:10 AM 84.0°F28.9°C 66.6°F19.2°C 56% 1.2 mph N1.9 kmh N 1.2 mph1.9 kmh 30.02 in1016.6 mb - 0.00 in0.0 mm 0.00 in0.0 mm
07:05 AM 83.4°F28.6°C 66.5°F19.2°C 57% 1.2 mph NNE1.9 kmh NNE 2.3 mph3.7 kmh 30.01 in1016.3 mb - 0.00 in0.0 mm 0.00 in0.0 mm
07:00 AM 82.8°F28.2°C 66.5°F19.2°C 58% 3.5 mph NE5.6 kmh NE 3.5 mph5.6 kmh 30.01 in1016.3 mb - 0.00 in0.0 mm 0.00 in0.0 mm
06:55 AM 82.2°F27.9°C 66.4°F19.1°C 59% 2.3 mph NNE3.7 kmh NNE 3.5 mph5.6 kmh 30.01 in1016.3 mb - 0.00 in0.0 mm 0.00 in0.0 mm
06:50 AM 81.9°F27.7°C 66.2°F19.0°C 59% 2.3 mph NW3.7 kmh NW 2.3 mph3.7 kmh 30.01 in1016.3 mb - 0.00 in0.0 mm 0.00 in0.0 mm
06:45 AM 81.5°F27.5°C 66.3°F19.1°C 60% 2.3 mph NE3.7 kmh NE 3.5 mph5.6 kmh 30.01 in1016.3 mb - 0.00 in0.0 mm 0.00 in0.0 mm
06:40 AM 81.3°F27.4°C 66.1°F18.9°C 60% 2.3 mph NE3.7 kmh NE 2.3 mph3.7 kmh 30.00 in1015.9 mb - 0.00 in0.0 mm 0.00 in0.0 mm
06:35 AM 81.1°F27.3°C 65.9°F18.8°C 60% 1.2 mph NE1.9 kmh NE 1.2 mph1.9 kmh 30.00 in1015.9 mb - 0.00 in0.0 mm 0.00 in0.0 mm
06:30 AM 81.1°F27.3°C 65.9°F18.8°C 60% 1.2 mph N1.9 kmh N 1.2 mph1.9 kmh 30.00 in1015.9 mb - 0.00 in0.0 mm 0.00 in0.0 mm
06:25 AM 81.0°F27.2°C 65.8°F18.8°C 60% 1.2 mph NW1.9 kmh NW 2.3 mph3.7 kmh 30.00 in1015.9 mb - 0.00 in0.0 mm 0.00 in0.0 mm
06:20 AM 81.0°F27.2°C 65.8°F18.8°C 60% 2.3 mph NE3.7 kmh NE 2.3 mph3.7 kmh 30.00 in1015.9 mb - 0.00 in0.0 mm 0.00 in0.0 mm
06:15 AM 80.5°F26.9°C 65.8°F18.8°C 61% 2.3 mph N3.7 kmh N 2.3 mph3.7 kmh 30.00 in1015.9 mb - 0.00 in0.0 mm 0.00 in0.0 mm
06:10 AM 80.2°F26.8°C 65.5°F18.6°C 61% 2.3 mph NE3.7 kmh NE 2.3 mph3.7 kmh 30.00 in1015.9 mb - 0.00 in0.0 mm 0.00 in0.0 mm
06:05 AM 80.2°F26.8°C 65.5°F18.6°C 61% 2.3 mph 3.7 kmh 3.5 mph5.6 kmh 29.99 in1015.6 mb - 0.00 in0.0 mm 0.00 in0.0 mm
06:00 AM 80.2°F26.8°C 65.5°F18.6°C 61% 2.3 mph NNE3.7 kmh NNE 2.3 mph3.7 kmh 29.99 in1015.6 mb - 0.00 in0.0 mm 0.00 in0.0 mm
05:55 AM 80.2°F26.8°C 65.5°F18.6°C 61% 3.5 mph NNE5.6 kmh NNE 4.6 mph7.4 kmh 29.99 in1015.6 mb - 0.00 in0.0 mm 0.00 in0.0 mm
05:50 AM 80.2°F26.8°C 65.5°F18.6°C 61% 3.5 mph NW5.6 kmh NW 3.5 mph5.6 kmh 29.99 in1015.6 mb - 0.00 in0.0 mm 0.00 in0.0 mm
05:45 AM 80.4°F26.9°C 65.2°F18.4°C 60% 2.3 mph NNE3.7 kmh NNE 3.5 mph5.6 kmh 29.99 in1015.6 mb - 0.00 in0.0 mm 0.00 in0.0 mm
05:40 AM 80.5°F26.9°C 65.4°F18.6°C 60% 3.5 mph N5.6 kmh N 3.5 mph5.6 kmh 29.98 in1015.2 mb - 0.00 in0.0 mm 0.00 in0.0 mm
05:35 AM 80.6°F27.0°C 65.4°F18.6°C 60% 3.5 mph NE5.6 kmh NE 3.5 mph5.6 kmh 29.98 in1015.2 mb - 0.00 in0.0 mm 0.00 in0.0 mm
05:30 AM 80.8°F27.1°C 65.6°F18.7°C 60% 4.6 mph ENE7.4 kmh ENE 5.8 mph9.3 kmh 29.98 in1015.2 mb - 0.00 in0.0 mm 0.00 in0.0 mm
05:25 AM 80.8°F27.1°C 65.1°F18.4°C 59% 4.6 mph N7.4 kmh N 4.6 mph7.4 kmh 29.98 in1015.2 mb - 0.00 in0.0 mm 0.00 in0.0 mm
05:20 AM 80.8°F27.1°C 65.1°F18.4°C 59% 2.3 mph NNE3.7 kmh NNE 4.6 mph7.4 kmh 29.98 in1015.2 mb - 0.00 in0.0 mm 0.00 in0.0 mm
05:15 AM 81.0°F27.2°C 65.3°F18.5°C 59% 2.3 mph N3.7 kmh N 3.5 mph5.6 kmh 29.98 in1015.2 mb - 0.00 in0.0 mm 0.00 in0.0 mm
05:10 AM 81.0°F27.2°C 65.3°F18.5°C 59% 1.2 mph NW1.9 kmh NW 3.5 mph5.6 kmh 29.98 in1015.2 mb - 0.00 in0.0 mm 0.00 in0.0 mm
05:05 AM 81.1°F27.3°C 65.4°F18.6°C 59% Calm Calm 1.2 mph1.9 kmh 29.98 in1015.2 mb - 0.00 in0.0 mm 0.00 in0.0 mm
05:00 AM 81.1°F27.3°C 65.4°F18.6°C 59% 1.2 mph W1.9 kmh W 1.2 mph1.9 kmh 29.98 in1015.2 mb - 0.00 in0.0 mm 0.00 in0.0 mm
04:55 AM 81.1°F27.3°C 65.4°F18.6°C 59% 1.2 mph N1.9 kmh N 2.3 mph3.7 kmh 29.97 in1014.9 mb - 0.00 in0.0 mm 0.00 in0.0 mm
04:50 AM 81.1°F27.3°C 65.4°F18.6°C 59% 3.5 mph NNW5.6 kmh NNW 3.5 mph5.6 kmh 29.97 in1014.9 mb - 0.00 in0.0 mm 0.00 in0.0 mm
04:45 AM 81.3°F27.4°C 65.6°F18.7°C 59% 2.3 mph WNW3.7 kmh WNW 2.3 mph3.7 kmh 29.97 in1014.9 mb - 0.00 in0.0 mm 0.00 in0.0 mm
04:40 AM 81.3°F27.4°C 65.6°F18.7°C 59% 3.5 mph NNE5.6 kmh NNE 4.6 mph7.4 kmh 29.97 in1014.9 mb - 0.00 in0.0 mm 0.00 in0.0 mm
04:35 AM 81.3°F27.4°C 65.6°F18.7°C 59% 3.5 mph N5.6 kmh N 4.6 mph7.4 kmh 29.97 in1014.9 mb - 0.00 in0.0 mm 0.00 in0.0 mm
04:30 AM 81.5°F27.5°C 65.8°F18.8°C 59% 4.6 mph NE7.4 kmh NE 4.6 mph7.4 kmh 29.97 in1014.9 mb - 0.00 in0.0 mm 0.00 in0.0 mm
04:25 AM 81.5°F27.5°C 65.8°F18.8°C 59% 3.5 mph NE5.6 kmh NE 4.6 mph7.4 kmh 29.97 in1014.9 mb - 0.00 in0.0 mm 0.00 in0.0 mm
04:20 AM 81.5°F27.5°C 65.8°F18.8°C 59% 4.6 mph NNE7.4 kmh NNE 5.8 mph9.3 kmh 29.97 in1014.9 mb - 0.00 in0.0 mm 0.00 in0.0 mm
04:15 AM 81.7°F27.6°C 66.0°F18.9°C 59% 4.6 mph N7.4 kmh N 5.8 mph9.3 kmh 29.98 in1015.2 mb - 0.00 in0.0 mm 0.00 in0.0 mm
04:10 AM 81.7°F27.6°C 66.0°F18.9°C 59% 4.6 mph NNE7.4 kmh NNE 4.6 mph7.4 kmh 29.98 in1015.2 mb - 0.00 in0.0 mm 0.00 in0.0 mm
04:05 AM 81.7°F27.6°C 66.0°F18.9°C 59% 3.5 mph SSE5.6 kmh SSE 4.6 mph7.4 kmh 29.98 in1015.2 mb - 0.00 in0.0 mm 0.00 in0.0 mm
04:00 AM 81.7°F27.6°C 66.0°F18.9°C 59% 4.6 mph N7.4 kmh N 5.8 mph9.3 kmh 29.98 in1015.2 mb - 0.00 in0.0 mm 0.00 in0.0 mm
03:55 AM 81.7°F27.6°C 66.0°F18.9°C 59% 3.5 mph NNE5.6 kmh NNE 5.8 mph9.3 kmh 29.98 in1015.2 mb - 0.00 in0.0 mm 0.00 in0.0 mm
03:50 AM 81.7°F27.6°C 66.0°F18.9°C 59% 4.6 mph N7.4 kmh N 4.6 mph7.4 kmh 29.98 in1015.2 mb - 0.00 in0.0 mm 0.00 in0.0 mm
03:45 AM 81.5°F27.5°C 65.8°F18.8°C 59% 2.3 mph NE3.7 kmh NE 3.5 mph5.6 kmh 29.98 in1015.2 mb - 0.00 in0.0 mm 0.00 in0.0 mm
03:40 AM 81.5°F27.5°C 65.8°F18.8°C 59% 3.5 mph NNE5.6 kmh NNE 4.6 mph7.4 kmh 29.98 in1015.2 mb - 0.00 in0.0 mm 0.00 in0.0 mm
03:35 AM 81.5°F27.5°C 65.8°F18.8°C 59% 2.3 mph NNE3.7 kmh NNE 2.3 mph3.7 kmh 29.98 in1015.2 mb - 0.00 in0.0 mm 0.00 in0.0 mm
03:30 AM 81.7°F27.6°C 66.0°F18.9°C 59% Calm Calm -- 29.98 in1015.2 mb - 0.00 in0.0 mm 0.00 in0.0 mm
03:25 AM 82.0°F27.8°C 66.2°F19.0°C 59% Calm Calm -- 29.98 in1015.2 mb - 0.00 in0.0 mm 0.00 in0.0 mm
03:20 AM 82.2°F27.9°C 66.0°F18.9°C 58% Calm Calm -- 29.98 in1015.2 mb - 0.00 in0.0 mm 0.00 in0.0 mm
03:15 AM 82.2°F27.9°C 66.0°F18.9°C 58% Calm Calm -- 29.98 in1015.2 mb - 0.00 in0.0 mm 0.00 in0.0 mm
03:10 AM 82.4°F28.0°C 66.1°F18.9°C 58% Calm Calm -- 29.98 in1015.2 mb - 0.00 in0.0 mm 0.00 in0.0 mm
03:05 AM 82.6°F28.1°C 65.8°F18.8°C 57% Calm Calm -- 29.98 in1015.2 mb - 0.00 in0.0 mm 0.00 in0.0 mm
03:00 AM 82.8°F28.2°C 66.0°F18.9°C 57% Calm Calm -- 29.98 in1015.2 mb - 0.00 in0.0 mm 0.00 in0.0 mm
02:55 AM 83.0°F28.3°C 65.7°F18.7°C 56% Calm Calm -- 29.98 in1015.2 mb - 0.00 in0.0 mm 0.00 in0.0 mm
02:50 AM 83.3°F28.5°C 66.0°F18.9°C 56% Calm Calm -- 29.97 in1014.9 mb - 0.00 in0.0 mm 0.00 in0.0 mm
02:45 AM 83.3°F28.5°C 66.0°F18.9°C 56% Calm Calm -- 29.97 in1014.9 mb - 0.00 in0.0 mm 0.00 in0.0 mm
02:40 AM 83.5°F28.6°C 66.2°F19.0°C 56% 1.2 mph SSE1.9 kmh SSE 1.2 mph1.9 kmh 29.97 in1014.9 mb - 0.00 in0.0 mm 0.00 in0.0 mm
02:35 AM 83.5°F28.6°C 66.2°F19.0°C 56% 2.3 mph S3.7 kmh S 2.3 mph3.7 kmh 29.97 in1014.9 mb - 0.00 in0.0 mm 0.00 in0.0 mm
02:30 AM 83.7°F28.7°C 66.3°F19.1°C 56% 2.3 mph SE3.7 kmh SE 2.3 mph3.7 kmh 29.97 in1014.9 mb - 0.00 in0.0 mm 0.00 in0.0 mm
02:25 AM 83.7°F28.7°C 66.3°F19.1°C 56% 3.5 mph SSE5.6 kmh SSE 3.5 mph5.6 kmh 29.97 in1014.9 mb - 0.00 in0.0 mm 0.00 in0.0 mm
02:20 AM 83.7°F28.7°C 66.3°F19.1°C 56% 4.6 mph S7.4 kmh S 5.8 mph9.3 kmh 29.97 in1014.9 mb - 0.00 in0.0 mm 0.00 in0.0 mm
02:15 AM 83.5°F28.6°C 66.2°F19.0°C 56% 2.3 mph SSE3.7 kmh SSE 3.5 mph5.6 kmh 29.98 in1015.2 mb - 0.00 in0.0 mm 0.00 in0.0 mm
02:10 AM 83.5°F28.6°C 66.2°F19.0°C 56% 3.5 mph SSE5.6 kmh SSE 4.6 mph7.4 kmh 29.98 in1015.2 mb - 0.00 in0.0 mm 0.00 in0.0 mm
02:05 AM 83.5°F28.6°C 66.2°F19.0°C 56% 3.5 mph WSW5.6 kmh WSW 3.5 mph5.6 kmh 29.97 in1014.9 mb - 0.00 in0.0 mm 0.00 in0.0 mm
02:00 AM 83.5°F28.6°C 66.2°F19.0°C 56% 4.6 mph SE7.4 kmh SE 5.8 mph9.3 kmh 29.97 in1014.9 mb - 0.00 in0.0 mm 0.00 in0.0 mm
01:55 AM 83.7°F28.7°C 66.3°F19.1°C 56% 3.5 mph S5.6 kmh S 4.6 mph7.4 kmh 29.97 in1014.9 mb - 0.00 in0.0 mm 0.00 in0.0 mm
01:50 AM 83.7°F28.7°C 66.3°F19.1°C 56% 4.6 mph S7.4 kmh S 5.8 mph9.3 kmh 29.98 in1015.2 mb - 0.00 in0.0 mm 0.00 in0.0 mm
01:45 AM 83.7°F28.7°C 66.3°F19.1°C 56% 5.8 mph ESE9.3 kmh ESE 5.8 mph9.3 kmh 29.98 in1015.2 mb - 0.00 in0.0 mm 0.00 in0.0 mm
01:40 AM 83.7°F28.7°C 66.3°F19.1°C 56% 5.8 mph S9.3 kmh S 6.9 mph11.1 kmh 29.98 in1015.2 mb - 0.00 in0.0 mm 0.00 in0.0 mm
01:35 AM 83.5°F28.6°C 66.2°F19.0°C 56% 5.8 mph SE9.3 kmh SE 6.9 mph11.1 kmh 29.98 in1015.2 mb - 0.00 in0.0 mm 0.00 in0.0 mm
01:30 AM 83.5°F28.6°C 66.2°F19.0°C 56% 3.5 mph SSE5.6 kmh SSE 5.8 mph9.3 kmh 29.97 in1014.9 mb - 0.00 in0.0 mm 0.00 in0.0 mm
01:25 AM 83.5°F28.6°C 66.2°F19.0°C 56% 4.6 mph S7.4 kmh S 5.8 mph9.3 kmh 29.97 in1014.9 mb - 0.00 in0.0 mm 0.00 in0.0 mm
01:20 AM 83.5°F28.6°C 65.6°F18.7°C 55% 2.3 mph SSE3.7 kmh SSE 2.3 mph3.7 kmh 29.97 in1014.9 mb - 0.00 in0.0 mm 0.00 in0.0 mm
01:15 AM 83.5°F28.6°C 65.6°F18.7°C 55% 3.5 mph SSE5.6 kmh SSE 3.5 mph5.6 kmh 29.97 in1014.9 mb - 0.00 in0.0 mm 0.00 in0.0 mm
01:10 AM 83.5°F28.6°C 65.6°F18.7°C 55% 3.5 mph SSE5.6 kmh SSE 4.6 mph7.4 kmh 29.97 in1014.9 mb - 0.00 in0.0 mm 0.00 in0.0 mm
01:05 AM 83.3°F28.5°C 65.4°F18.6°C 55% 4.6 mph S7.4 kmh S 4.6 mph7.4 kmh 29.97 in1014.9 mb - 0.00 in0.0 mm 0.00 in0.0 mm
01:00 AM 83.0°F28.3°C 65.1°F18.4°C 55% 4.6 mph SE7.4 kmh SE 5.8 mph9.3 kmh 29.97 in1014.9 mb - 0.00 in0.0 mm 0.00 in0.0 mm
12:55 AM 82.6°F28.1°C 65.3°F18.5°C 56% 1.2 mph E1.9 kmh E 2.3 mph3.7 kmh 29.97 in1014.9 mb - 0.00 in0.0 mm 0.00 in0.0 mm
12:50 AM 82.6°F28.1°C 65.3°F18.5°C 56% Calm Calm 2.3 mph3.7 kmh 29.97 in1014.9 mb - 0.00 in0.0 mm 0.00 in0.0 mm
12:45 AM 82.6°F28.1°C 65.3°F18.5°C 56% 1.2 mph E1.9 kmh E 1.2 mph1.9 kmh 29.97 in1014.9 mb - 0.00 in0.0 mm 0.00 in0.0 mm
12:40 AM 82.6°F28.1°C 65.3°F18.5°C 56% 2.3 mph NNE3.7 kmh NNE 2.3 mph3.7 kmh 29.97 in1014.9 mb - 0.00 in0.0 mm 0.00 in0.0 mm
12:35 AM 82.6°F28.1°C 65.3°F18.5°C 56% 2.3 mph NE3.7 kmh NE 3.5 mph5.6 kmh 29.97 in1014.9 mb - 0.00 in0.0 mm 0.00 in0.0 mm
12:30 AM 82.8°F28.2°C 65.5°F18.6°C 56% 2.3 mph NNE3.7 kmh NNE 2.3 mph3.7 kmh 29.97 in1014.9 mb - 0.00 in0.0 mm 0.00 in0.0 mm
12:25 AM 82.8°F28.2°C 65.5°F18.6°C 56% 1.2 mph NE1.9 kmh NE 2.3 mph3.7 kmh 29.97 in1014.9 mb - 0.00 in0.0 mm 0.00 in0.0 mm
12:20 AM 82.6°F28.1°C 65.3°F18.5°C 56% 2.3 mph N3.7 kmh N 2.3 mph3.7 kmh 29.97 in1014.9 mb - 0.00 in0.0 mm 0.00 in0.0 mm
12:15 AM 82.6°F28.1°C 65.3°F18.5°C 56% 2.3 mph NNE3.7 kmh NNE 2.3 mph3.7 kmh 29.96 in1014.6 mb - 0.00 in0.0 mm 0.00 in0.0 mm
12:10 AM 82.6°F28.1°C 65.3°F18.5°C 56% 3.5 mph NNE5.6 kmh NNE 3.5 mph5.6 kmh 29.96 in1014.6 mb - 0.00 in0.0 mm 0.00 in0.0 mm
12:05 AM 82.8°F28.2°C 65.5°F18.6°C 56% 3.5 mph N5.6 kmh N 3.5 mph5.6 kmh 29.96 in1014.6 mb - 0.00 in0.0 mm 0.00 in0.0 mm
12:00 AM 82.8°F28.2°C 65.5°F18.6°C 56% 3.5 mph N5.6 kmh N 4.6 mph7.4 kmh 29.96 in1014.6 mb - 0.00 in0.0 mm 0.00 in0.0 mm